createdAt,value
2022-10-28T03:16:56.840Z,100195.03
2022-10-28T03:17:28.130Z,100201.59
2022-10-28T03:17:59.362Z,100197.75
2022-10-28T03:18:30.855Z,100200.88
2022-10-28T03:19:02.129Z,100197.03
2022-10-28T03:19:33.596Z,100196.72
2022-10-28T03:20:04.862Z,100189.84
2022-10-28T03:20:36.129Z,100197.75
2022-10-28T03:21:07.418Z,100188.94
2022-10-28T03:21:38.692Z,100199.47
2022-10-28T03:22:09.987Z,100189.03
2022-10-28T03:22:41.238Z,100199.97
2022-10-28T03:23:12.489Z,100194.50
2022-10-28T03:23:43.786Z,100194.41
2022-10-28T03:24:15.141Z,100189.75
2022-10-28T03:24:46.393Z,100188.66
2022-10-28T03:25:17.648Z,100186.19
2022-10-28T03:25:48.933Z,100186.19
2022-10-28T03:26:20.203Z,100186.19
2022-10-28T03:26:51.475Z,100189.53
2022-10-28T03:27:22.766Z,100188.44
2022-10-28T03:27:54.015Z,100187.03
2022-10-28T03:28:25.358Z,100185.91
2022-10-28T03:28:56.585Z,100184.28
2022-10-28T03:29:27.846Z,100182.34
2022-10-28T03:29:59.106Z,100183.16
2022-10-28T03:30:30.400Z,100185.00
2022-10-28T03:31:01.634Z,100177.47
2022-10-28T03:31:32.919Z,100181.75
2022-10-28T03:32:04.215Z,100184.78
2022-10-28T03:32:35.671Z,100179.91
2022-10-28T03:33:06.883Z,100176.88
2022-10-28T03:33:38.148Z,100178.81
2022-10-28T03:34:09.424Z,100181.53
2022-10-28T03:34:40.744Z,100186.19
2022-10-28T03:35:12.011Z,100185.91
2022-10-28T03:35:43.406Z,100181.25
2022-10-28T03:36:14.658Z,100182.34
2022-10-28T03:36:45.985Z,100182.06
2022-10-28T03:37:17.286Z,100182.25
2022-10-28T03:37:48.578Z,100185.31
2022-10-28T03:38:19.924Z,100180.63
2022-10-28T03:38:51.196Z,100187.44
2022-10-28T03:39:22.480Z,100186.41
2022-10-28T03:39:53.745Z,100179.00
2022-10-28T03:40:25.067Z,100177.69
2022-10-28T03:40:56.334Z,100179.53
2022-10-28T03:41:27.960Z,100187.44
2022-10-28T03:41:59.227Z,100180.53
2022-10-28T03:42:30.579Z,100182.56
2022-10-28T03:43:01.826Z,100180.03
2022-10-28T03:43:33.069Z,100182.88
2022-10-28T03:44:04.330Z,100177.19
2022-10-28T03:44:35.587Z,100181.75
2022-10-28T03:45:06.797Z,100185.81
2022-10-28T03:45:38.063Z,100178.50
2022-10-28T03:46:09.349Z,100185.91
2022-10-28T03:46:40.581Z,100177.69
2022-10-28T03:47:11.840Z,100182.56
2022-10-28T03:47:43.180Z,100181.44
2022-10-28T03:48:14.568Z,100181.97
2022-10-28T03:48:45.810Z,100180.03
2022-10-28T03:49:17.064Z,100182.16
2022-10-28T03:49:48.320Z,100183.28
2022-10-28T03:50:19.616Z,100175.38
2022-10-28T03:50:50.876Z,100180.34
2022-10-28T03:51:22.145Z,100177.28
2022-10-28T03:51:53.367Z,100181.16
2022-10-28T03:52:24.655Z,100178.09
2022-10-28T03:52:55.887Z,100180.53
2022-10-28T03:53:29.046Z,100181.34
2022-10-28T03:54:02.465Z,100180.94
2022-10-28T03:54:33.773Z,100179.22
2022-10-28T03:55:04.978Z,100180.34
2022-10-28T03:55:36.216Z,100181.66
2022-10-28T03:56:07.480Z,100181.34
2022-10-28T03:56:38.705Z,100188.16
2022-10-28T03:57:09.982Z,100177.19
2022-10-28T03:57:41.368Z,100186.03
2022-10-28T03:58:12.720Z,100183.28
2022-10-28T03:58:44.014Z,100183.88
2022-10-28T03:59:19.165Z,100181.16
2022-10-28T03:59:54.264Z,100181.66
2022-10-28T04:00:25.919Z,100183.88
2022-10-28T04:00:57.499Z,100186.13
2022-10-28T04:01:29.317Z,100180.63
2022-10-28T04:02:01.048Z,100176.06
2022-10-28T04:02:32.811Z,100173.63
2022-10-28T04:03:04.599Z,100176.97
2022-10-28T04:03:39.256Z,100172.81
2022-10-28T04:04:10.747Z,100170.38
2022-10-28T04:04:42.066Z,100174.44
2022-10-28T04:05:13.418Z,100170.59
2022-10-28T04:05:44.739Z,100170.88
2022-10-28T04:06:15.988Z,100174.44
2022-10-28T04:06:47.274Z,100171.41
2022-10-28T04:07:18.597Z,100167.56
2022-10-28T04:07:49.831Z,100169.19
2022-10-28T04:08:21.090Z,100163.91
2022-10-28T04:08:52.379Z,100169.59
2022-10-28T04:09:23.649Z,100169.91
2022-10-28T04:09:54.894Z,100164.72
2022-10-28T04:10:26.319Z,100165.31
2022-10-28T04:10:57.765Z,100168.16
2022-10-28T04:11:29.066Z,100170.28
2022-10-28T04:12:00.407Z,100175.25
2022-10-28T04:12:31.731Z,100172.00
2022-10-28T04:13:03.084Z,100169.78
2022-10-28T04:13:34.412Z,100173.63
2022-10-28T04:14:05.784Z,100176.38
2022-10-28T04:14:37.100Z,100175.25
2022-10-28T04:15:08.397Z,100172.22
2022-10-28T04:15:39.633Z,100175.25
2022-10-28T04:16:10.947Z,100163.50
2022-10-28T04:16:42.216Z,100168.75
2022-10-28T04:17:13.534Z,100175.56
2022-10-28T04:17:44.778Z,100170.06
2022-10-28T04:18:16.057Z,100172.00
2022-10-28T04:18:47.326Z,100171.19
2022-10-28T04:19:18.609Z,100167.13
2022-10-28T04:19:49.907Z,100173.22
2022-10-28T04:20:21.176Z,100174.03
2022-10-28T04:20:52.467Z,100169.34
2022-10-28T04:21:23.703Z,100170.69
2022-10-28T04:21:54.932Z,100174.22
2022-10-28T04:22:26.173Z,100169.34
2022-10-28T04:22:57.515Z,100174.75
2022-10-28T04:23:28.828Z,100174.03
2022-10-28T04:24:00.067Z,100173.63
2022-10-28T04:24:31.362Z,100175.25
2022-10-28T04:25:02.628Z,100176.06
2022-10-28T04:25:33.939Z,100170.28
2022-10-28T04:26:05.199Z,100169.38
2022-10-28T04:26:36.447Z,100169.47
2022-10-28T04:27:07.712Z,100168.66
2022-10-28T04:27:38.984Z,100165.50
2022-10-28T04:28:10.240Z,100168.44
2022-10-28T04:28:41.526Z,100164.00
2022-10-28T04:29:12.798Z,100164.81
2022-10-28T04:29:44.048Z,100165.94
2022-10-28T04:30:15.352Z,100167.84
2022-10-28T04:30:46.671Z,100167.56
2022-10-28T04:31:17.960Z,100167.25
2022-10-28T04:31:52.146Z,100165.84
2022-10-28T04:32:23.671Z,100173.03
2022-10-28T04:32:54.927Z,100174.03
2022-10-28T04:33:26.189Z,100168.06
2022-10-28T04:33:57.420Z,100167.25
2022-10-28T04:34:28.685Z,100164.81
2022-10-28T04:34:59.940Z,100168.06
2022-10-28T04:35:31.268Z,100166.94
2022-10-28T04:36:02.526Z,100166.13
2022-10-28T04:36:33.781Z,100169.78
2022-10-28T04:37:05.060Z,100165.31
2022-10-28T04:37:36.307Z,100172.22
2022-10-28T04:38:07.604Z,100165.53
2022-10-28T04:38:38.918Z,100162.59
2022-10-28T04:39:10.290Z,100163.59
2022-10-28T04:39:41.580Z,100163.00
2022-10-28T04:40:12.829Z,100163.31
2022-10-28T04:40:44.110Z,100165.03
2022-10-28T04:41:15.397Z,100169.09
2022-10-28T04:41:46.654Z,100169.97
2022-10-28T04:42:17.902Z,100172.41
2022-10-28T04:42:49.166Z,100166.75
2022-10-28T04:43:20.495Z,100168.56
2022-10-28T04:43:51.786Z,100165.94
2022-10-28T04:44:23.058Z,100161.25
2022-10-28T04:44:54.342Z,100174.03
2022-10-28T04:45:25.617Z,100164.59
2022-10-28T04:45:56.909Z,100162.06
2022-10-28T04:46:28.129Z,100170.19
2022-10-28T04:46:59.387Z,100165.03
2022-10-28T04:47:30.688Z,100169.38
2022-10-28T04:48:01.928Z,100168.34
2022-10-28T04:48:33.148Z,100167.25
2022-10-28T04:49:04.407Z,100167.34
2022-10-28T04:49:38.148Z,100162.69
2022-10-28T04:50:10.403Z,100167.63
2022-10-28T04:50:41.660Z,100163.28
2022-10-28T04:51:12.982Z,100161.56
2022-10-28T04:51:44.291Z,100165.41
2022-10-28T04:52:15.971Z,100163.06
2022-10-28T04:52:47.393Z,100160.63
2022-10-28T04:53:18.721Z,100161.66
2022-10-28T04:53:50.174Z,100160.34
2022-10-28T04:54:21.494Z,100159.22
2022-10-28T04:54:52.738Z,100157.59
2022-10-28T04:55:24.024Z,100159.22
2022-10-28T04:55:55.281Z,100156.69
2022-10-28T04:56:26.564Z,100152.94
2022-10-28T04:56:57.833Z,100159.53
2022-10-28T04:57:29.069Z,100160.63
2022-10-28T04:58:00.408Z,100162.25
2022-10-28T04:58:31.680Z,100152.13
2022-10-28T04:59:02.941Z,100160.34
2022-10-28T04:59:34.242Z,100156.47
2022-10-28T05:00:05.596Z,100152.41
2022-10-28T05:00:36.927Z,100157.81
2022-10-28T05:01:08.330Z,100162.25
2022-10-28T05:01:39.845Z,100164.38
2022-10-28T05:02:11.373Z,100160.25
2022-10-28T05:02:46.040Z,100162.97
2022-10-28T05:03:17.641Z,100169.47
2022-10-28T05:03:48.933Z,100161.25
2022-10-28T05:04:20.331Z,100163.19
2022-10-28T05:04:51.614Z,100159.63
2022-10-28T05:05:22.936Z,100165.19
2022-10-28T05:05:54.249Z,100172.00
2022-10-28T05:06:25.548Z,100165.72
2022-10-28T05:06:56.866Z,100162.69
2022-10-28T05:07:28.140Z,100165.94
2022-10-28T05:07:59.425Z,100163.28
2022-10-28T05:08:30.763Z,100169.19
2022-10-28T05:09:02.075Z,100170.28
2022-10-28T05:09:33.369Z,100165.13
2022-10-28T05:10:04.617Z,100161.88
2022-10-28T05:10:36.018Z,100167.25
2022-10-28T05:11:07.286Z,100172.22
2022-10-28T05:11:38.492Z,100162.06
2022-10-28T05:12:09.767Z,100164.38
2022-10-28T05:12:41.062Z,100160.13
2022-10-28T05:13:12.452Z,100158.09
2022-10-28T05:13:43.746Z,100162.38
2022-10-28T05:14:14.997Z,100169.78
2022-10-28T05:14:48.895Z,100158.81
2022-10-28T05:15:21.400Z,100160.44
2022-10-28T05:15:52.792Z,100170.88
2022-10-28T05:16:24.143Z,100165.94
2022-10-28T05:16:55.427Z,100163.50
2022-10-28T05:17:26.667Z,100171.09
2022-10-28T05:17:57.920Z,100158.53
2022-10-28T05:18:29.221Z,100170.88
2022-10-28T05:19:00.519Z,100174.44
2022-10-28T05:19:31.750Z,100165.94
2022-10-28T05:20:03.023Z,100165.03
2022-10-28T05:20:34.309Z,100173.53
2022-10-28T05:21:05.585Z,100175.75
2022-10-28T05:21:36.857Z,100170.88
2022-10-28T05:22:08.167Z,100173.03
2022-10-28T05:22:39.540Z,100173.63
2022-10-28T05:23:10.918Z,100169.25
2022-10-28T05:23:42.194Z,100167.13
2022-10-28T05:24:13.485Z,100171.19
2022-10-28T05:24:44.746Z,100167.34
2022-10-28T05:25:16.031Z,100165.50
2022-10-28T05:25:47.349Z,100169.56
2022-10-28T05:26:18.656Z,100173.22
2022-10-28T05:26:50.048Z,100169.34
2022-10-28T05:27:21.397Z,100158.91
2022-10-28T05:27:52.665Z,100170.06
2022-10-28T05:28:23.977Z,100167.72
2022-10-28T05:28:55.258Z,100172.59
2022-10-28T05:29:29.768Z,100172.09
2022-10-28T05:30:04.328Z,100169.06
2022-10-28T05:30:35.577Z,100171.50
2022-10-28T05:31:06.892Z,100169.88
2022-10-28T05:31:38.212Z,100167.13
2022-10-28T05:32:09.567Z,100167.13
2022-10-28T05:32:40.884Z,100169.56
2022-10-28T05:33:12.180Z,100168.75
2022-10-28T05:33:43.499Z,100169.34
2022-10-28T05:34:14.767Z,100170.97
2022-10-28T05:34:46.032Z,100174.22
2022-10-28T05:35:17.303Z,100170.38
2022-10-28T05:35:48.579Z,100174.94
2022-10-28T05:36:19.850Z,100170.88
2022-10-28T05:36:51.137Z,100162.69
2022-10-28T05:37:22.507Z,100172.50
2022-10-28T05:37:53.729Z,100168.66
2022-10-28T05:38:24.983Z,100166.00
2022-10-28T05:38:56.286Z,100166.00
2022-10-28T05:39:28.004Z,100172.81
2022-10-28T05:39:59.287Z,100159.94
2022-10-28T05:40:30.615Z,100168.16
2022-10-28T05:41:01.889Z,100170.38
2022-10-28T05:41:36.463Z,100170.38
2022-10-28T05:42:09.980Z,100163.50
2022-10-28T05:42:41.302Z,100163.69
2022-10-28T05:43:12.564Z,100165.94
2022-10-28T05:43:43.851Z,100173.41
2022-10-28T05:44:15.114Z,100166.53
2022-10-28T05:44:46.383Z,100165.19
2022-10-28T05:45:18.107Z,100180.22
2022-10-28T05:45:49.456Z,100171.09
2022-10-28T05:46:20.728Z,100168.16
2022-10-28T05:46:52.015Z,100171.41
2022-10-28T05:47:23.238Z,100172.50
2022-10-28T05:47:54.814Z,100172.59
2022-10-28T05:48:26.287Z,100167.84
2022-10-28T05:48:57.514Z,100179.31
2022-10-28T05:49:28.764Z,100170.78
2022-10-28T05:50:00.006Z,100169.19
2022-10-28T05:50:31.296Z,100176.88
2022-10-28T05:51:02.614Z,100171.41
2022-10-28T05:51:33.887Z,100169.88
2022-10-28T05:52:05.172Z,100181.34
2022-10-28T05:52:36.481Z,100175.34
2022-10-28T05:53:07.785Z,100167.13
2022-10-28T05:53:39.032Z,100171.41
2022-10-28T05:54:10.254Z,100168.34
2022-10-28T05:54:41.474Z,100167.34
2022-10-28T05:55:12.726Z,100170.88
2022-10-28T05:55:46.878Z,100163.78
2022-10-28T05:56:19.289Z,100172.50
2022-10-28T05:56:50.575Z,100164.22
2022-10-28T05:57:21.803Z,100165.63
2022-10-28T05:57:53.302Z,100168.34
2022-10-28T05:58:24.883Z,100167.63
2022-10-28T05:58:56.201Z,100166.22
2022-10-28T05:59:27.471Z,100167.03
2022-10-28T05:59:58.762Z,100167.84
2022-10-28T06:00:30.064Z,100166.13
2022-10-28T06:01:01.293Z,100172.22
2022-10-28T06:01:32.623Z,100174.34
2022-10-28T06:02:04.035Z,100171.91
2022-10-28T06:02:35.294Z,100168.34
2022-10-28T06:03:06.506Z,100179.00
2022-10-28T06:03:37.844Z,100174.66
2022-10-28T06:04:09.171Z,100179.09
2022-10-28T06:04:40.475Z,100181.03
2022-10-28T06:05:11.720Z,100173.03
2022-10-28T06:05:43.069Z,100183.69
2022-10-28T06:06:14.341Z,100178.50
2022-10-28T06:06:45.556Z,100179.09
2022-10-28T06:07:16.814Z,100177.47
2022-10-28T06:07:48.117Z,100181.25
2022-10-28T06:08:19.350Z,100182.97
2022-10-28T06:08:50.583Z,100182.97
2022-10-28T06:09:21.791Z,100173.94
2022-10-28T06:09:53.040Z,100179.50
2022-10-28T06:10:24.378Z,100181.13
2022-10-28T06:10:54.121Z,100180.00
2022-10-28T06:11:25.354Z,100176.53
2022-10-28T06:11:56.661Z,100175.56
2022-10-28T06:12:27.978Z,100179.91
2022-10-28T06:12:59.266Z,100176.06
2022-10-28T06:13:30.513Z,100182.16
2022-10-28T06:14:01.826Z,100180.72
2022-10-28T06:14:33.152Z,100172.59
2022-10-28T06:15:04.387Z,100175.03
2022-10-28T06:15:35.734Z,100179.91
2022-10-28T06:16:07.045Z,100183.56
2022-10-28T06:16:38.303Z,100185.91
2022-10-28T06:17:09.567Z,100178.81
2022-10-28T06:17:40.847Z,100178.50
2022-10-28T06:18:15.439Z,100179.91
2022-10-28T06:18:49.441Z,100174.53
2022-10-28T06:19:20.674Z,100183.13
2022-10-28T06:19:51.925Z,100188.91
2022-10-28T06:20:23.158Z,100182.53
2022-10-28T06:20:54.523Z,100180.91
2022-10-28T06:21:25.816Z,100183.03
2022-10-28T06:21:57.001Z,100182.97
2022-10-28T06:22:28.291Z,100190.06
2022-10-28T06:22:59.588Z,100186.00
2022-10-28T06:23:30.879Z,100184.16
2022-10-28T06:24:02.159Z,100187.91
2022-10-28T06:24:33.466Z,100196.94
2022-10-28T06:25:04.738Z,100197.38
2022-10-28T06:25:36.001Z,100191.97
2022-10-28T06:26:07.320Z,100187.91
2022-10-28T06:26:38.599Z,100192.88
2022-10-28T06:27:09.853Z,100195.53
2022-10-28T06:27:41.082Z,100204.34
2022-10-28T06:28:12.355Z,100201.41
2022-10-28T06:28:43.619Z,100196.72
2022-10-28T06:29:14.927Z,100195.31
2022-10-28T06:29:46.217Z,100201.91
2022-10-28T06:30:17.505Z,100191.47
2022-10-28T06:30:48.782Z,100202.22
2022-10-28T06:31:20.197Z,100196.53
2022-10-28T06:31:51.491Z,100198.44
2022-10-28T06:32:22.744Z,100200.66
2022-10-28T06:32:54.117Z,100201.19
2022-10-28T06:33:25.408Z,100196.81
2022-10-28T06:33:56.632Z,100203.41
2022-10-28T06:34:27.896Z,100203.91
2022-10-28T06:34:59.160Z,100204.22
2022-10-28T06:35:30.442Z,100202.59
2022-10-28T06:36:01.826Z,100205.25
2022-10-28T06:36:33.180Z,100204.13
2022-10-28T06:37:04.470Z,100206.66
2022-10-28T06:37:35.757Z,100193.69
2022-10-28T06:38:09.364Z,100201.41
2022-10-28T06:38:40.844Z,100206.88
2022-10-28T06:39:12.095Z,100214.78
2022-10-28T06:39:43.349Z,100204.72
2022-10-28T06:40:14.618Z,100210.50
2022-10-28T06:40:47.930Z,100205.63
2022-10-28T06:41:21.585Z,100212.13
2022-10-28T06:41:52.897Z,100216.50
2022-10-28T06:42:24.156Z,100213.25
2022-10-28T06:42:55.440Z,100211.53
2022-10-28T06:43:26.763Z,100207.25
2022-10-28T06:43:58.023Z,100214.34
2022-10-28T06:44:29.254Z,100213.75
2022-10-28T06:45:00.547Z,100214.78
2022-10-28T06:45:31.854Z,100214.78
2022-10-28T06:46:03.100Z,100213.66
2022-10-28T06:46:35.854Z,100211.53
2022-10-28T06:47:07.094Z,100211.53
2022-10-28T06:47:41.386Z,100212.03
2022-10-28T06:48:13.045Z,100208.78
2022-10-28T06:48:44.320Z,100205.53
2022-10-28T06:49:15.558Z,100213.16
2022-10-28T06:49:46.823Z,100208.78
2022-10-28T06:50:18.064Z,100212.03
2022-10-28T06:50:49.384Z,100206.66
2022-10-28T06:51:20.664Z,100211.63
2022-10-28T06:51:51.904Z,100211.53
2022-10-28T06:52:23.202Z,100217.81
2022-10-28T06:52:54.464Z,100208.19
2022-10-28T06:53:25.782Z,100209.00
2022-10-28T06:53:57.082Z,100215.00
2022-10-28T06:54:28.283Z,100215.81
2022-10-28T06:54:59.495Z,100204.03
2022-10-28T06:55:30.826Z,100199.38
2022-10-28T06:56:02.113Z,100211.75
2022-10-28T06:56:33.357Z,100205.66
2022-10-28T06:57:04.645Z,100203.44
2022-10-28T06:57:35.962Z,100209.22
2022-10-28T06:58:07.179Z,100204.78
2022-10-28T06:58:38.493Z,100204.84
2022-10-28T06:59:09.744Z,100201.00
2022-10-28T06:59:41.019Z,100198.78
2022-10-28T07:00:12.290Z,100202.34
2022-10-28T07:00:43.598Z,100204.25
2022-10-28T07:01:14.906Z,100208.91
2022-10-28T07:01:46.302Z,100219.28
2022-10-28T07:02:17.714Z,100213.28
2022-10-28T07:02:49.135Z,100214.69
2022-10-28T07:03:20.422Z,100204.78
2022-10-28T07:03:51.687Z,100209.53
2022-10-28T07:04:22.943Z,100212.97
2022-10-28T07:04:54.317Z,100208.31
2022-10-28T07:05:25.620Z,100208.03
2022-10-28T07:05:56.869Z,100203.16
2022-10-28T07:06:28.107Z,100199.81
2022-10-28T07:06:59.352Z,100203.66
2022-10-28T07:07:30.597Z,100197.56
2022-10-28T07:08:01.907Z,100201.81
2022-10-28T07:08:33.190Z,100208.09
2022-10-28T07:09:04.474Z,100204.47
2022-10-28T07:09:35.680Z,100196.34
2022-10-28T07:10:06.897Z,100205.97
2022-10-28T07:10:38.131Z,100203.16
2022-10-28T07:11:09.385Z,100204.78
2022-10-28T07:11:40.776Z,100196.25
2022-10-28T07:12:12.089Z,100202.53
2022-10-28T07:12:44.538Z,100204.47
2022-10-28T07:13:15.837Z,100207.72
2022-10-28T07:13:48.950Z,100216.03
2022-10-28T07:14:20.437Z,100223.94
2022-10-28T07:14:51.752Z,100224.53
2022-10-28T07:15:23.056Z,100221.50
2022-10-28T07:15:54.374Z,100222.31
2022-10-28T07:16:25.635Z,100220.78
2022-10-28T07:16:56.934Z,100216.03
2022-10-28T07:17:28.256Z,100224.53
2022-10-28T07:17:59.501Z,100226.75
2022-10-28T07:18:30.738Z,100220.19
2022-10-28T07:19:02.024Z,100224.03
2022-10-28T07:19:33.312Z,100226.16
2022-10-28T07:20:04.627Z,100223.13
2022-10-28T07:20:35.926Z,100228.38
2022-10-28T07:21:07.280Z,100225.75
2022-10-28T07:21:38.636Z,100225.13
2022-10-28T07:22:10.051Z,100232.44
2022-10-28T07:22:41.420Z,100229.81
2022-10-28T07:23:12.712Z,100237.94
2022-10-28T07:23:43.979Z,100233.56
2022-10-28T07:24:15.366Z,100237.50
2022-10-28T07:24:46.614Z,100238.63
2022-10-28T07:25:17.836Z,100233.94
2022-10-28T07:25:49.143Z,100234.16
2022-10-28T07:26:20.540Z,100233.66
2022-10-28T07:26:54.206Z,100233.13
2022-10-28T07:27:28.223Z,100240.16
2022-10-28T07:27:59.538Z,100237.19
2022-10-28T07:28:30.805Z,100240.75
2022-10-28T07:29:02.060Z,100231.13
2022-10-28T07:29:33.292Z,100235.56
2022-10-28T07:30:04.591Z,100233.66
2022-10-28T07:30:35.871Z,100236.91
2022-10-28T07:31:07.179Z,100242.16
2022-10-28T07:31:38.484Z,100238.31
2022-10-28T07:32:09.785Z,100239.63
2022-10-28T07:32:41.152Z,100232.31
2022-10-28T07:33:12.443Z,100234.16
2022-10-28T07:33:43.780Z,100239.34
2022-10-28T07:34:15.032Z,100237.72
2022-10-28T07:34:46.250Z,100236.91
2022-10-28T07:35:17.492Z,100239.03
2022-10-28T07:35:48.747Z,100230.00
2022-10-28T07:36:20.043Z,100235.78
2022-10-28T07:36:51.295Z,100241.47
2022-10-28T07:37:22.595Z,100234.88
2022-10-28T07:37:53.886Z,100242.59
2022-10-28T07:38:25.177Z,100235.50
2022-10-28T07:38:56.443Z,100246.44
2022-10-28T07:39:27.746Z,100242.88
2022-10-28T07:39:59.063Z,100243.41
2022-10-28T07:40:30.295Z,100240.16
2022-10-28T07:41:01.569Z,100244.22
2022-10-28T07:41:32.930Z,100256.38
2022-10-28T07:42:04.201Z,100244.81
2022-10-28T07:42:35.430Z,100244.50
2022-10-28T07:43:06.755Z,100254.97
2022-10-28T07:43:38.035Z,100246.16
2022-10-28T07:44:09.369Z,100246.16
2022-10-28T07:44:40.610Z,100247.03
2022-10-28T07:45:11.849Z,100255.78
2022-10-28T07:45:43.149Z,100253.03
2022-10-28T07:46:14.473Z,100241.56
2022-10-28T07:46:45.813Z,100244.81
2022-10-28T07:47:17.107Z,100247.63
2022-10-28T07:47:48.382Z,100238.91
2022-10-28T07:48:19.688Z,100244.59
2022-10-28T07:48:50.954Z,100248.16
2022-10-28T07:49:22.210Z,100237.19
2022-10-28T07:49:53.476Z,100242.75
2022-10-28T07:50:24.796Z,100239.94
2022-10-28T07:50:56.060Z,100242.75
2022-10-28T07:51:27.352Z,100238.00
2022-10-28T07:51:58.610Z,100238.09
2022-10-28T07:52:29.965Z,100227.97
2022-10-28T07:53:01.271Z,100230.41
2022-10-28T07:53:32.692Z,100231.22
2022-10-28T07:54:03.981Z,100234.75
2022-10-28T07:54:35.209Z,100232.53
2022-10-28T07:55:06.474Z,100231.63
2022-10-28T07:55:37.720Z,100230.63
2022-10-28T07:56:08.991Z,100236.31
2022-10-28T07:56:40.314Z,100230.91
2022-10-28T07:57:11.697Z,100236.19
2022-10-28T07:57:42.944Z,100243.19
2022-10-28T07:58:14.200Z,100235.88
2022-10-28T07:58:45.488Z,100241.66
2022-10-28T07:59:16.753Z,100235.44
2022-10-28T07:59:48.043Z,100236.03
2022-10-28T08:00:19.337Z,100230.56
2022-10-28T08:00:50.648Z,100233.59
2022-10-28T08:01:22.035Z,100239.59
2022-10-28T08:01:53.510Z,100243.66
2022-10-28T08:02:24.768Z,100239.50
2022-10-28T08:02:56.025Z,100237.06
2022-10-28T08:03:34.507Z,100243.66
2022-10-28T08:04:09.591Z,100236.34
2022-10-28T08:04:40.853Z,100239.91
2022-10-28T08:05:12.172Z,100241.81
2022-10-28T08:05:43.477Z,100233.31
2022-10-28T08:06:14.715Z,100241.44
2022-10-28T08:06:46.055Z,100243.88
2022-10-28T08:07:17.667Z,100238.91
2022-10-28T08:07:48.915Z,100234.56
2022-10-28T08:08:20.193Z,100234.84
2022-10-28T08:08:51.475Z,100225.66
2022-10-28T08:09:22.745Z,100236.84
2022-10-28T08:09:54.009Z,100236.25
2022-10-28T08:10:25.297Z,100228.56
2022-10-28T08:10:56.552Z,100231.50
2022-10-28T08:11:27.874Z,100227.66
2022-10-28T08:11:59.153Z,100231.44
2022-10-28T08:12:30.397Z,100228.38
2022-10-28T08:13:01.689Z,100235.50
2022-10-28T08:13:34.924Z,100238.63
2022-10-28T08:14:08.089Z,100229.81
2022-10-28T08:14:39.310Z,100235.78
2022-10-28T08:15:10.597Z,100240.75
2022-10-28T08:15:41.951Z,100239.34
2022-10-28T08:16:13.217Z,100240.97
2022-10-28T08:16:44.504Z,100239.56
2022-10-28T08:17:15.780Z,100242.59
2022-10-28T08:17:47.025Z,100235.19
2022-10-28T08:18:18.303Z,100235.19
2022-10-28T08:18:49.542Z,100239.84
2022-10-28T08:19:20.836Z,100242.59
2022-10-28T08:19:52.132Z,100235.19
2022-10-28T08:20:23.545Z,100242.06
2022-10-28T08:20:54.806Z,100237.72
2022-10-28T08:21:26.106Z,100239.94
2022-10-28T08:21:57.397Z,100242.88
2022-10-28T08:22:28.667Z,100235.06
2022-10-28T08:23:02.762Z,100239.13
2022-10-28T08:23:36.549Z,100241.56
2022-10-28T08:24:07.811Z,100242.88
2022-10-28T08:24:39.104Z,100239.03
2022-10-28T08:25:10.369Z,100244.81
2022-10-28T08:25:41.700Z,100243.72
2022-10-28T08:26:12.983Z,100245.53
2022-10-28T08:26:44.254Z,100253.84
2022-10-28T08:27:15.574Z,100245.63
2022-10-28T08:27:46.900Z,100245.63
2022-10-28T08:28:18.189Z,100244.59
2022-10-28T08:28:49.426Z,100250.38
2022-10-28T08:29:20.763Z,100252.59
2022-10-28T08:29:52.037Z,100244.59
2022-10-28T08:30:23.327Z,100251.41
2022-10-28T08:31:08.390Z,100245.63
2022-10-28T08:31:40.282Z,100244.81
2022-10-28T08:32:11.566Z,100241.56
2022-10-28T08:32:42.885Z,100244.31
2022-10-28T08:33:14.157Z,100249.25
2022-10-28T08:33:45.461Z,100247.72
2022-10-28T08:34:16.830Z,100244.38
2022-10-28T08:34:48.168Z,100247.13
2022-10-28T08:35:19.455Z,100253.03
2022-10-28T08:35:50.728Z,100249.47
2022-10-28T08:36:22.000Z,100244.59
2022-10-28T08:36:53.424Z,100246.53
2022-10-28T08:37:24.745Z,100248.44
2022-10-28T08:37:56.470Z,100241.25
2022-10-28T08:38:27.865Z,100249.78
2022-10-28T08:38:59.143Z,100245.72
2022-10-28T08:39:30.401Z,100246.00
2022-10-28T08:40:01.660Z,100241.06
2022-10-28T08:40:32.944Z,100248.16
2022-10-28T08:41:04.168Z,100254.22
2022-10-28T08:41:35.445Z,100247.34
2022-10-28T08:42:06.749Z,100250.28
2022-10-28T08:42:38.003Z,100252.94
2022-10-28T08:43:09.247Z,100243.41
2022-10-28T08:43:56.709Z,100244.81
2022-10-28T08:44:29.124Z,100243.78
2022-10-28T08:45:00.346Z,100250.88
2022-10-28T08:45:31.667Z,100252.53
2022-10-28T08:46:02.966Z,100247.84
2022-10-28T08:46:34.194Z,100250.69
2022-10-28T08:47:05.481Z,100245.13
2022-10-28T08:47:36.779Z,100242.38
2022-10-28T08:48:08.073Z,100243.56
2022-10-28T08:48:39.400Z,100236.69
2022-10-28T08:49:10.646Z,100237.28
2022-10-28T08:49:43.461Z,100236.25
2022-10-28T08:50:17.077Z,100234.56
2022-10-28T08:50:48.377Z,100240.03
2022-10-28T08:51:19.622Z,100237.72
2022-10-28T08:51:50.893Z,100240.16
2022-10-28T08:52:22.184Z,100238.53
2022-10-28T08:52:53.710Z,100245.63
2022-10-28T08:53:25.148Z,100242.69
2022-10-28T08:53:56.483Z,100240.75
2022-10-28T08:54:27.754Z,100238.91
2022-10-28T08:54:59.052Z,100242.69
2022-10-28T08:55:30.312Z,100236.69
2022-10-28T08:56:01.574Z,100232.03
2022-10-28T08:56:32.851Z,100234.25
2022-10-28T08:57:04.083Z,100238.91
2022-10-28T08:57:35.384Z,100233.44
2022-10-28T08:58:06.655Z,100231.50
2022-10-28T08:58:37.908Z,100228.78
2022-10-28T08:59:09.125Z,100230.41
2022-10-28T08:59:40.465Z,100220.34
2022-10-28T09:00:11.722Z,100226.25
2022-10-28T09:00:43.016Z,100226.84
2022-10-28T09:01:14.368Z,100230.41
2022-10-28T09:01:45.880Z,100219.16
2022-10-28T09:02:17.297Z,100223.00
2022-10-28T09:02:48.715Z,100223.50
2022-10-28T09:03:19.947Z,100220.78
2022-10-28T09:03:51.176Z,100229.28
2022-10-28T09:04:22.415Z,100229.06
2022-10-28T09:04:53.658Z,100231.81
2022-10-28T09:05:24.952Z,100229.38
2022-10-28T09:05:56.244Z,100228.47
2022-10-28T09:06:27.594Z,100227.88
2022-10-28T09:06:58.939Z,100225.34
2022-10-28T09:07:30.223Z,100229.50
2022-10-28T09:08:01.454Z,100225.75
2022-10-28T09:08:32.714Z,100233.34
2022-10-28T09:09:04.008Z,100227.56
2022-10-28T09:09:35.315Z,100230.81
2022-10-28T09:10:06.613Z,100226.69
2022-10-28T09:10:37.909Z,100226.16
2022-10-28T09:11:09.154Z,100227.19
2022-10-28T09:11:40.470Z,100227.19
2022-10-28T09:12:11.713Z,100223.34
2022-10-28T09:12:42.956Z,100222.63
2022-10-28T09:13:14.361Z,100221.50
2022-10-28T09:13:45.614Z,100216.84
2022-10-28T09:14:16.907Z,100226.97
2022-10-28T09:14:48.206Z,100226.53
2022-10-28T09:15:19.492Z,100225.94
2022-10-28T09:15:50.789Z,100225.94